sensor_id;sensor_type;location;lat;lon;timestamp;P1;durP1;ratioP1;P2;durP2;ratioP2
23712;SDS011;12035;49.978;8.298;2024-02-23T00:01:28;2.25;;;0.65;;
23712;SDS011;12035;49.978;8.298;2024-02-23T00:06:25;3.10;;;0.93;;
23712;SDS011;12035;49.978;8.298;2024-02-23T00:11:23;1.35;;;0.50;;
23712;SDS011;12035;49.978;8.298;2024-02-23T00:16:20;1.80;;;0.55;;
23712;SDS011;12035;49.978;8.298;2024-02-23T00:21:18;2.83;;;0.60;;
23712;SDS011;12035;49.978;8.298;2024-02-23T00:26:15;3.38;;;0.60;;
23712;SDS011;12035;49.978;8.298;2024-02-23T00:31:12;1.60;;;0.47;;
23712;SDS011;12035;49.978;8.298;2024-02-23T00:36:09;2.33;;;0.60;;
23712;SDS011;12035;49.978;8.298;2024-02-23T00:41:07;2.55;;;0.40;;
23712;SDS011;12035;49.978;8.298;2024-02-23T00:46:05;2.90;;;0.60;;
23712;SDS011;12035;49.978;8.298;2024-02-23T00:51:02;2.40;;;0.60;;
23712;SDS011;12035;49.978;8.298;2024-02-23T00:55:59;1.55;;;0.50;;
23712;SDS011;12035;49.978;8.298;2024-02-23T01:00:58;2.10;;;0.40;;
23712;SDS011;12035;49.978;8.298;2024-02-23T01:05:56;2.80;;;0.50;;
23712;SDS011;12035;49.978;8.298;2024-02-23T01:10:53;2.45;;;0.50;;
23712;SDS011;12035;49.978;8.298;2024-02-23T01:15:50;2.83;;;0.40;;
23712;SDS011;12035;49.978;8.298;2024-02-23T01:20:50;3.65;;;0.50;;
23712;SDS011;12035;49.978;8.298;2024-02-23T01:25:47;1.58;;;0.50;;
23712;SDS011;12035;49.978;8.298;2024-02-23T01:30:44;1.55;;;0.35;;
23712;SDS011;12035;49.978;8.298;2024-02-23T01:35:41;5.90;;;0.40;;
23712;SDS011;12035;49.978;8.298;2024-02-23T01:40:39;1.73;;;0.30;;
23712;SDS011;12035;49.978;8.298;2024-02-23T01:45:36;0.98;;;0.35;;
23712;SDS011;12035;49.978;8.298;2024-02-23T01:50:33;1.75;;;0.30;;
23712;SDS011;12035;49.978;8.298;2024-02-23T01:55:31;3.17;;;0.30;;
23712;SDS011;12035;49.978;8.298;2024-02-23T02:00:30;3.15;;;0.40;;
23712;SDS011;12035;49.978;8.298;2024-02-23T02:05:27;1.08;;;0.35;;
23712;SDS011;12035;49.978;8.298;2024-02-23T02:10:25;2.53;;;0.47;;
23712;SDS011;12035;49.978;8.298;2024-02-23T02:15:22;2.70;;;0.47;;
23712;SDS011;12035;49.978;8.298;2024-02-23T02:20:23;1.15;;;0.20;;
23712;SDS011;12035;49.978;8.298;2024-02-23T02:25:21;1.42;;;0.20;;
23712;SDS011;12035;49.978;8.298;2024-02-23T02:30:18;1.08;;;0.38;;
23712;SDS011;12035;49.978;8.298;2024-02-23T02:35:15;1.92;;;0.55;;
23712;SDS011;12035;49.978;8.298;2024-02-23T02:40:14;1.25;;;0.30;;
23712;SDS011;12035;49.978;8.298;2024-02-23T02:45:11;2.95;;;0.32;;
23712;SDS011;12035;49.978;8.298;2024-02-23T02:50:08;1.02;;;0.25;;
23712;SDS011;12035;49.978;8.298;2024-02-23T02:55:06;3.25;;;0.40;;
23712;SDS011;12035;49.978;8.298;2024-02-23T03:00:09;3.83;;;0.60;;
23712;SDS011;12035;49.978;8.298;2024-02-23T03:05:07;1.92;;;0.40;;
23712;SDS011;12035;49.978;8.298;2024-02-23T03:10:05;5.85;;;0.52;;
23712;SDS011;12035;49.978;8.298;2024-02-23T03:15:03;1.77;;;0.50;;
23712;SDS011;12035;49.978;8.298;2024-02-23T03:20:02;2.13;;;0.40;;
23712;SDS011;12035;49.978;8.298;2024-02-23T03:25:03;2.55;;;0.40;;
23712;SDS011;12035;49.978;8.298;2024-02-23T03:30:03;3.05;;;0.40;;
23712;SDS011;12035;49.978;8.298;2024-02-23T03:35:04;3.17;;;0.38;;
23712;SDS011;12035;49.978;8.298;2024-02-23T03:40:03;1.38;;;0.35;;
23712;SDS011;12035;49.978;8.298;2024-02-23T03:45:02;2.88;;;0.50;;
23712;SDS011;12035;49.978;8.298;2024-02-23T03:50:02;3.92;;;0.55;;
23712;SDS011;12035;49.978;8.298;2024-02-23T03:54:59;3.92;;;0.52;;
23712;SDS011;12035;49.978;8.298;2024-02-23T03:59:58;5.63;;;0.60;;
23712;SDS011;12035;49.978;8.298;2024-02-23T04:04:57;4.22;;;0.70;;
23712;SDS011;12035;49.978;8.298;2024-02-23T04:09:54;2.40;;;0.60;;
23712;SDS011;12035;49.978;8.298;2024-02-23T04:14:51;2.28;;;0.50;;
23712;SDS011;12035;49.978;8.298;2024-02-23T04:19:48;3.15;;;0.75;;
23712;SDS011;12035;49.978;8.298;2024-02-23T04:24:46;3.50;;;0.75;;
23712;SDS011;12035;49.978;8.298;2024-02-23T04:29:43;2.88;;;0.70;;
23712;SDS011;12035;49.978;8.298;2024-02-23T04:34:40;2.95;;;0.47;;
23712;SDS011;12035;49.978;8.298;2024-02-23T04:39:37;1.13;;;0.45;;
23712;SDS011;12035;49.978;8.298;2024-02-23T04:44:38;1.20;;;0.43;;
23712;SDS011;12035;49.978;8.298;2024-02-23T04:49:37;2.47;;;0.50;;
23712;SDS011;12035;49.978;8.298;2024-02-23T04:54:34;2.83;;;0.60;;
23712;SDS011;12035;49.978;8.298;2024-02-23T04:59:31;2.22;;;0.52;;
23712;SDS011;12035;49.978;8.298;2024-02-23T05:04:29;2.72;;;0.50;;
23712;SDS011;12035;49.978;8.298;2024-02-23T05:09:26;2.40;;;0.73;;
23712;SDS011;12035;49.978;8.298;2024-02-23T05:14:24;1.67;;;0.60;;
23712;SDS011;12035;49.978;8.298;2024-02-23T05:19:21;3.60;;;0.70;;
23712;SDS011;12035;49.978;8.298;2024-02-23T05:24:19;2.92;;;0.70;;
23712;SDS011;12035;49.978;8.298;2024-02-23T05:29:16;4.70;;;0.63;;
23712;SDS011;12035;49.978;8.298;2024-02-23T05:34:15;1.98;;;0.57;;
23712;SDS011;12035;49.978;8.298;2024-02-23T05:39:12;4.22;;;0.68;;
23712;SDS011;12035;49.978;8.298;2024-02-23T05:44:11;3.38;;;0.75;;
23712;SDS011;12035;49.978;8.298;2024-02-23T05:49:08;2.28;;;0.73;;
23712;SDS011;12035;49.978;8.298;2024-02-23T05:54:05;2.70;;;0.75;;
23712;SDS011;12035;49.978;8.298;2024-02-23T05:59:05;4.32;;;0.88;;
23712;SDS011;12035;49.978;8.298;2024-02-23T06:04:04;3.80;;;0.88;;
23712;SDS011;12035;49.978;8.298;2024-02-23T06:09:01;6.72;;;1.52;;
23712;SDS011;12035;49.978;8.298;2024-02-23T06:13:58;3.75;;;0.60;;
23712;SDS011;12035;49.978;8.298;2024-02-23T06:18:55;5.70;;;1.08;;
23712;SDS011;12035;49.978;8.298;2024-02-23T06:23:54;4.22;;;0.88;;
23712;SDS011;12035;49.978;8.298;2024-02-23T06:28:51;3.80;;;0.73;;
23712;SDS011;12035;49.978;8.298;2024-02-23T06:33:48;4.55;;;0.85;;
23712;SDS011;12035;49.978;8.298;2024-02-23T06:38:47;3.28;;;0.70;;
23712;SDS011;12035;49.978;8.298;2024-02-23T06:43:45;2.58;;;0.73;;
23712;SDS011;12035;49.978;8.298;2024-02-23T06:48:45;3.75;;;0.70;;
23712;SDS011;12035;49.978;8.298;2024-02-23T06:53:42;4.90;;;0.90;;
23712;SDS011;12035;49.978;8.298;2024-02-23T06:58:39;5.43;;;0.70;;
23712;SDS011;12035;49.978;8.298;2024-02-23T07:03:38;4.00;;;1.10;;
23712;SDS011;12035;49.978;8.298;2024-02-23T07:08:35;4.68;;;0.80;;
23712;SDS011;12035;49.978;8.298;2024-02-23T07:13:32;2.92;;;0.68;;
23712;SDS011;12035;49.978;8.298;2024-02-23T07:18:29;3.85;;;0.60;;
23712;SDS011;12035;49.978;8.298;2024-02-23T07:23:29;3.38;;;0.80;;
23712;SDS011;12035;49.978;8.298;2024-02-23T07:28:26;2.45;;;0.50;;
23712;SDS011;12035;49.978;8.298;2024-02-23T07:33:23;3.85;;;0.60;;
23712;SDS011;12035;49.978;8.298;2024-02-23T07:38:20;3.60;;;0.50;;
23712;SDS011;12035;49.978;8.298;2024-02-23T07:43:18;2.78;;;0.70;;
23712;SDS011;12035;49.978;8.298;2024-02-23T07:48:15;2.83;;;0.85;;
23712;SDS011;12035;49.978;8.298;2024-02-23T07:53:12;4.05;;;0.90;;
23712;SDS011;12035;49.978;8.298;2024-02-23T07:58:09;3.25;;;0.77;;
23712;SDS011;12035;49.978;8.298;2024-02-23T08:03:07;3.70;;;0.63;;
23712;SDS011;12035;49.978;8.298;2024-02-23T08:08:05;3.22;;;0.82;;
23712;SDS011;12035;49.978;8.298;2024-02-23T08:13:05;3.25;;;0.80;;
23712;SDS011;12035;49.978;8.298;2024-02-23T08:18:03;2.55;;;0.70;;
23712;SDS011;12035;49.978;8.298;2024-02-23T08:23:02;3.35;;;0.80;;
23712;SDS011;12035;49.978;8.298;2024-02-23T08:27:59;5.18;;;1.17;;
23712;SDS011;12035;49.978;8.298;2024-02-23T08:32:56;4.00;;;0.70;;
23712;SDS011;12035;49.978;8.298;2024-02-23T08:37:54;7.47;;;1.00;;
23712;SDS011;12035;49.978;8.298;2024-02-23T08:42:53;3.55;;;0.93;;
23712;SDS011;12035;49.978;8.298;2024-02-23T08:47:50;3.22;;;0.82;;
23712;SDS011;12035;49.978;8.298;2024-02-23T08:52:47;4.72;;;1.13;;
23712;SDS011;12035;49.978;8.298;2024-02-23T08:57:44;4.00;;;0.80;;
23712;SDS011;12035;49.978;8.298;2024-02-23T09:02:43;4.65;;;1.20;;
23712;SDS011;12035;49.978;8.298;2024-02-23T09:07:40;4.18;;;1.02;;
23712;SDS011;12035;49.978;8.298;2024-02-23T09:12:37;5.40;;;1.35;;
23712;SDS011;12035;49.978;8.298;2024-02-23T09:17:34;6.43;;;1.30;;
23712;SDS011;12035;49.978;8.298;2024-02-23T09:22:32;4.70;;;0.98;;
23712;SDS011;12035;49.978;8.298;2024-02-23T09:27:30;5.57;;;0.80;;
23712;SDS011;12035;49.978;8.298;2024-02-23T09:32:27;6.05;;;0.80;;
23712;SDS011;12035;49.978;8.298;2024-02-23T09:37:24;2.88;;;0.60;;
23712;SDS011;12035;49.978;8.298;2024-02-23T09:42:23;4.22;;;0.75;;
23712;SDS011;12035;49.978;8.298;2024-02-23T09:47:21;2.60;;;0.77;;
23712;SDS011;12035;49.978;8.298;2024-02-23T09:52:18;4.03;;;1.45;;
23712;SDS011;12035;49.978;8.298;2024-02-23T09:57:17;6.88;;;0.95;;
23712;SDS011;12035;49.978;8.298;2024-02-23T10:02:16;4.25;;;1.08;;
23712;SDS011;12035;49.978;8.298;2024-02-23T10:07:14;4.40;;;0.90;;
23712;SDS011;12035;49.978;8.298;2024-02-23T10:12:12;5.53;;;1.00;;
23712;SDS011;12035;49.978;8.298;2024-02-23T10:17:09;1.98;;;0.60;;
23712;SDS011;12035;49.978;8.298;2024-02-23T10:22:08;6.00;;;0.90;;
23712;SDS011;12035;49.978;8.298;2024-02-23T10:27:05;4.85;;;0.85;;
23712;SDS011;12035;49.978;8.298;2024-02-23T10:32:02;3.13;;;0.70;;
23712;SDS011;12035;49.978;8.298;2024-02-23T10:37:01;4.20;;;0.88;;
23712;SDS011;12035;49.978;8.298;2024-02-23T10:42:03;6.70;;;0.75;;
23712;SDS011;12035;49.978;8.298;2024-02-23T10:47:01;4.18;;;0.70;;
23712;SDS011;12035;49.978;8.298;2024-02-23T10:51:59;3.85;;;1.23;;
23712;SDS011;12035;49.978;8.298;2024-02-23T10:56:57;3.40;;;0.60;;
23712;SDS011;12035;49.978;8.298;2024-02-23T11:01:55;3.08;;;0.60;;
23712;SDS011;12035;49.978;8.298;2024-02-23T11:06:55;2.67;;;0.60;;
23712;SDS011;12035;49.978;8.298;2024-02-23T11:11:53;2.47;;;0.70;;
23712;SDS011;12035;49.978;8.298;2024-02-23T11:16:51;3.00;;;0.70;;
23712;SDS011;12035;49.978;8.298;2024-02-23T11:21:53;3.17;;;0.70;;
23712;SDS011;12035;49.978;8.298;2024-02-23T11:26:50;4.50;;;0.90;;
23712;SDS011;12035;49.978;8.298;2024-02-23T11:31:53;3.25;;;0.60;;
23712;SDS011;12035;49.978;8.298;2024-02-23T11:36:57;3.17;;;0.60;;
23712;SDS011;12035;49.978;8.298;2024-02-23T11:42:03;3.42;;;0.68;;
23712;SDS011;12035;49.978;8.298;2024-02-23T11:47:01;3.55;;;0.70;;
23712;SDS011;12035;49.978;8.298;2024-02-23T11:52:00;3.75;;;0.65;;
23712;SDS011;12035;49.978;8.298;2024-02-23T11:56:58;2.03;;;0.47;;
23712;SDS011;12035;49.978;8.298;2024-02-23T12:01:55;2.83;;;0.77;;
23712;SDS011;12035;49.978;8.298;2024-02-23T12:06:53;3.17;;;0.60;;
23712;SDS011;12035;49.978;8.298;2024-02-23T12:11:51;3.88;;;0.88;;
23712;SDS011;12035;49.978;8.298;2024-02-23T12:16:48;3.50;;;0.60;;
23712;SDS011;12035;49.978;8.298;2024-02-23T12:21:47;2.38;;;0.50;;
23712;SDS011;12035;49.978;8.298;2024-02-23T12:26:44;1.60;;;0.50;;
23712;SDS011;12035;49.978;8.298;2024-02-23T12:31:43;2.97;;;0.60;;
23712;SDS011;12035;49.978;8.298;2024-02-23T12:36:40;2.72;;;0.60;;
23712;SDS011;12035;49.978;8.298;2024-02-23T12:41:37;4.38;;;0.80;;
23712;SDS011;12035;49.978;8.298;2024-02-23T12:46:34;4.05;;;0.63;;
23712;SDS011;12035;49.978;8.298;2024-02-23T12:51:32;2.17;;;0.43;;
23712;SDS011;12035;49.978;8.298;2024-02-23T12:56:31;3.40;;;0.63;;
23712;SDS011;12035;49.978;8.298;2024-02-23T13:01:28;2.83;;;0.40;;
23712;SDS011;12035;49.978;8.298;2024-02-23T13:06:27;2.72;;;0.60;;
23712;SDS011;12035;49.978;8.298;2024-02-23T13:11:25;3.83;;;0.50;;
23712;SDS011;12035;49.978;8.298;2024-02-23T13:16:22;3.97;;;0.60;;
23712;SDS011;12035;49.978;8.298;2024-02-23T13:21:19;2.85;;;0.65;;
23712;SDS011;12035;49.978;8.298;2024-02-23T13:26:17;1.65;;;0.43;;
23712;SDS011;12035;49.978;8.298;2024-02-23T13:31:15;2.67;;;0.50;;
23712;SDS011;12035;49.978;8.298;2024-02-23T13:36:12;3.30;;;0.50;;
23712;SDS011;12035;49.978;8.298;2024-02-23T13:41:09;3.22;;;0.60;;
23712;SDS011;12035;49.978;8.298;2024-02-23T13:46:06;4.28;;;0.90;;
23712;SDS011;12035;49.978;8.298;2024-02-23T13:51:05;3.90;;;0.52;;
23712;SDS011;12035;49.978;8.298;2024-02-23T13:56:02;4.43;;;0.75;;
23712;SDS011;12035;49.978;8.298;2024-02-23T14:00:59;3.25;;;0.65;;
23712;SDS011;12035;49.978;8.298;2024-02-23T14:05:56;3.28;;;0.65;;
23712;SDS011;12035;49.978;8.298;2024-02-23T14:10:55;2.70;;;0.60;;
23712;SDS011;12035;49.978;8.298;2024-02-23T14:15:52;3.47;;;0.88;;
23712;SDS011;12035;49.978;8.298;2024-02-23T14:20:49;5.32;;;0.50;;
23712;SDS011;12035;49.978;8.298;2024-02-23T14:25:47;1.98;;;0.50;;
23712;SDS011;12035;49.978;8.298;2024-02-23T14:30:45;2.40;;;0.35;;
23712;SDS011;12035;49.978;8.298;2024-02-23T14:35:42;2.70;;;0.60;;
23712;SDS011;12035;49.978;8.298;2024-02-23T14:40:39;4.10;;;1.10;;
23712;SDS011;12035;49.978;8.298;2024-02-23T14:45:36;2.22;;;1.13;;
23712;SDS011;12035;49.978;8.298;2024-02-23T14:50:35;1.65;;;0.50;;
23712;SDS011;12035;49.978;8.298;2024-02-23T14:55:32;2.05;;;0.50;;
23712;SDS011;12035;49.978;8.298;2024-02-23T15:00:29;1.88;;;0.50;;
23712;SDS011;12035;49.978;8.298;2024-02-23T15:05:28;1.25;;;0.40;;
23712;SDS011;12035;49.978;8.298;2024-02-23T15:10:26;3.42;;;0.50;;
23712;SDS011;12035;49.978;8.298;2024-02-23T15:15:24;2.75;;;0.55;;
23712;SDS011;12035;49.978;8.298;2024-02-23T15:20:21;2.20;;;0.73;;
23712;SDS011;12035;49.978;8.298;2024-02-23T15:25:18;2.47;;;0.50;;
23712;SDS011;12035;49.978;8.298;2024-02-23T15:30:17;1.55;;;0.40;;
23712;SDS011;12035;49.978;8.298;2024-02-23T15:35:14;1.85;;;0.40;;
23712;SDS011;12035;49.978;8.298;2024-02-23T15:40:12;3.70;;;0.50;;
23712;SDS011;12035;49.978;8.298;2024-02-23T15:45:10;2.60;;;0.85;;
23712;SDS011;12035;49.978;8.298;2024-02-23T15:50:08;3.25;;;0.75;;
23712;SDS011;12035;49.978;8.298;2024-02-23T15:55:06;2.72;;;0.73;;
23712;SDS011;12035;49.978;8.298;2024-02-23T16:00:06;4.43;;;0.90;;
23712;SDS011;12035;49.978;8.298;2024-02-23T16:05:05;2.47;;;0.63;;
23712;SDS011;12035;49.978;8.298;2024-02-23T16:10:05;6.38;;;1.25;;
23712;SDS011;12035;49.978;8.298;2024-02-23T16:15:04;4.90;;;0.70;;
23712;SDS011;12035;49.978;8.298;2024-02-23T16:20:03;2.28;;;0.65;;
23712;SDS011;12035;49.978;8.298;2024-02-23T16:25:02;3.75;;;0.63;;
23712;SDS011;12035;49.978;8.298;2024-02-23T16:30:01;3.28;;;0.73;;
23712;SDS011;12035;49.978;8.298;2024-02-23T16:34:59;3.17;;;0.73;;
23712;SDS011;12035;49.978;8.298;2024-02-23T16:39:56;3.45;;;0.65;;
23712;SDS011;12035;49.978;8.298;2024-02-23T16:44:54;4.10;;;0.75;;
23712;SDS011;12035;49.978;8.298;2024-02-23T16:49:51;4.95;;;0.90;;
23712;SDS011;12035;49.978;8.298;2024-02-23T16:54:48;2.10;;;0.88;;
23712;SDS011;12035;49.978;8.298;2024-02-23T16:59:45;2.25;;;0.60;;
23712;SDS011;12035;49.978;8.298;2024-02-23T17:04:44;1.85;;;0.52;;
23712;SDS011;12035;49.978;8.298;2024-02-23T17:09:41;2.13;;;0.60;;
23712;SDS011;12035;49.978;8.298;2024-02-23T17:14:41;3.53;;;0.77;;
23712;SDS011;12035;49.978;8.298;2024-02-23T17:19:38;2.72;;;0.70;;
23712;SDS011;12035;49.978;8.298;2024-02-23T17:24:37;4.43;;;0.90;;
23712;SDS011;12035;49.978;8.298;2024-02-23T17:29:34;2.40;;;0.60;;
23712;SDS011;12035;49.978;8.298;2024-02-23T17:34:31;2.63;;;0.60;;
23712;SDS011;12035;49.978;8.298;2024-02-23T17:39:28;3.67;;;0.68;;
23712;SDS011;12035;49.978;8.298;2024-02-23T17:44:27;2.55;;;0.82;;
23712;SDS011;12035;49.978;8.298;2024-02-23T17:49:24;2.30;;;0.70;;
23712;SDS011;12035;49.978;8.298;2024-02-23T17:54:21;2.08;;;0.52;;
23712;SDS011;12035;49.978;8.298;2024-02-23T17:59:18;1.52;;;0.70;;
23712;SDS011;12035;49.978;8.298;2024-02-23T18:04:16;2.53;;;0.50;;
23712;SDS011;12035;49.978;8.298;2024-02-23T18:09:17;2.45;;;0.90;;
23712;SDS011;12035;49.978;8.298;2024-02-23T18:14:14;2.30;;;0.80;;
23712;SDS011;12035;49.978;8.298;2024-02-23T18:19:12;2.53;;;0.68;;
23712;SDS011;12035;49.978;8.298;2024-02-23T18:24:11;4.28;;;2.00;;
23712;SDS011;12035;49.978;8.298;2024-02-23T18:29:08;3.78;;;1.00;;
23712;SDS011;12035;49.978;8.298;2024-02-23T18:34:05;2.92;;;1.02;;
23712;SDS011;12035;49.978;8.298;2024-02-23T18:39:02;4.00;;;1.20;;
23712;SDS011;12035;49.978;8.298;2024-02-23T18:44:02;4.10;;;1.23;;
23712;SDS011;12035;49.978;8.298;2024-02-23T18:49:00;4.85;;;1.50;;
23712;SDS011;12035;49.978;8.298;2024-02-23T18:53:57;4.07;;;1.40;;
23712;SDS011;12035;49.978;8.298;2024-02-23T18:58:54;3.30;;;1.30;;
23712;SDS011;12035;49.978;8.298;2024-02-23T19:03:53;5.25;;;1.70;;
23712;SDS011;12035;49.978;8.298;2024-02-23T19:08:50;3.05;;;1.10;;
23712;SDS011;12035;49.978;8.298;2024-02-23T19:13:47;3.20;;;1.00;;
23712;SDS011;12035;49.978;8.298;2024-02-23T19:18:44;1.70;;;0.90;;
23712;SDS011;12035;49.978;8.298;2024-02-23T19:23:43;2.70;;;1.13;;
23712;SDS011;12035;49.978;8.298;2024-02-23T19:28:40;5.72;;;1.83;;
23712;SDS011;12035;49.978;8.298;2024-02-23T19:33:38;4.50;;;1.60;;
23712;SDS011;12035;49.978;8.298;2024-02-23T19:38:35;4.75;;;2.42;;
23712;SDS011;12035;49.978;8.298;2024-02-23T19:43:34;3.67;;;1.50;;
23712;SDS011;12035;49.978;8.298;2024-02-23T19:48:31;3.30;;;1.20;;
23712;SDS011;12035;49.978;8.298;2024-02-23T19:53:28;7.35;;;2.42;;
23712;SDS011;12035;49.978;8.298;2024-02-23T19:58:25;5.88;;;2.17;;
23712;SDS011;12035;49.978;8.298;2024-02-23T20:03:24;3.88;;;1.45;;
23712;SDS011;12035;49.978;8.298;2024-02-23T20:08:21;4.63;;;1.90;;
23712;SDS011;12035;49.978;8.298;2024-02-23T20:13:18;2.92;;;1.30;;
23712;SDS011;12035;49.978;8.298;2024-02-23T20:18:15;4.15;;;1.40;;
23712;SDS011;12035;49.978;8.298;2024-02-23T20:23:14;2.17;;;1.02;;
23712;SDS011;12035;49.978;8.298;2024-02-23T20:28:11;2.70;;;1.40;;
23712;SDS011;12035;49.978;8.298;2024-02-23T20:33:08;3.38;;;1.27;;
23712;SDS011;12035;49.978;8.298;2024-02-23T20:38:05;4.68;;;1.40;;
23712;SDS011;12035;49.978;8.298;2024-02-23T20:43:06;5.70;;;1.38;;
23712;SDS011;12035;49.978;8.298;2024-02-23T20:48:03;4.43;;;0.93;;
23712;SDS011;12035;49.978;8.298;2024-02-23T20:53:01;4.20;;;1.15;;
23712;SDS011;12035;49.978;8.298;2024-02-23T20:57:59;3.63;;;1.30;;
23712;SDS011;12035;49.978;8.298;2024-02-23T21:02:57;6.00;;;1.98;;
23712;SDS011;12035;49.978;8.298;2024-02-23T21:07:54;4.53;;;1.45;;
23712;SDS011;12035;49.978;8.298;2024-02-23T21:12:51;5.55;;;1.50;;
23712;SDS011;12035;49.978;8.298;2024-02-23T21:17:48;4.55;;;1.40;;
23712;SDS011;12035;49.978;8.298;2024-02-23T21:22:46;3.85;;;1.60;;
23712;SDS011;12035;49.978;8.298;2024-02-23T21:27:43;4.07;;;1.25;;
23712;SDS011;12035;49.978;8.298;2024-02-23T21:32:40;4.53;;;1.40;;
23712;SDS011;12035;49.978;8.298;2024-02-23T21:37:37;4.90;;;1.70;;
23712;SDS011;12035;49.978;8.298;2024-02-23T21:42:36;3.25;;;1.58;;
23712;SDS011;12035;49.978;8.298;2024-02-23T21:47:33;4.07;;;1.60;;
23712;SDS011;12035;49.978;8.298;2024-02-23T21:52:30;4.68;;;1.70;;
23712;SDS011;12035;49.978;8.298;2024-02-23T21:57:32;6.60;;;1.75;;
23712;SDS011;12035;49.978;8.298;2024-02-23T22:02:30;6.18;;;1.85;;
23712;SDS011;12035;49.978;8.298;2024-02-23T22:07:27;6.07;;;1.60;;
23712;SDS011;12035;49.978;8.298;2024-02-23T22:12:25;4.55;;;1.67;;
23712;SDS011;12035;49.978;8.298;2024-02-23T22:17:23;7.15;;;1.50;;
23712;SDS011;12035;49.978;8.298;2024-02-23T22:22:23;4.57;;;1.50;;
23712;SDS011;12035;49.978;8.298;2024-02-23T22:27:22;6.25;;;1.70;;
23712;SDS011;12035;49.978;8.298;2024-02-23T22:32:19;4.50;;;1.17;;
23712;SDS011;12035;49.978;8.298;2024-02-23T22:37:16;5.20;;;1.80;;
23712;SDS011;12035;49.978;8.298;2024-02-23T22:42:15;6.28;;;1.80;;
23712;SDS011;12035;49.978;8.298;2024-02-23T22:47:12;5.22;;;2.13;;
23712;SDS011;12035;49.978;8.298;2024-02-23T22:52:10;5.85;;;2.30;;
23712;SDS011;12035;49.978;8.298;2024-02-23T22:57:07;5.18;;;2.35;;
23712;SDS011;12035;49.978;8.298;2024-02-23T23:02:05;5.18;;;1.65;;
23712;SDS011;12035;49.978;8.298;2024-02-23T23:07:02;5.18;;;2.17;;
23712;SDS011;12035;49.978;8.298;2024-02-23T23:11:59;3.20;;;1.30;;
23712;SDS011;12035;49.978;8.298;2024-02-23T23:16:57;4.35;;;1.30;;
23712;SDS011;12035;49.978;8.298;2024-02-23T23:21:55;3.70;;;1.50;;
23712;SDS011;12035;49.978;8.298;2024-02-23T23:26:52;4.97;;;1.95;;
23712;SDS011;12035;49.978;8.298;2024-02-23T23:31:49;7.72;;;2.25;;
23712;SDS011;12035;49.978;8.298;2024-02-23T23:36:47;6.93;;;3.78;;
23712;SDS011;12035;49.978;8.298;2024-02-23T23:41:46;3.28;;;1.60;;
23712;SDS011;12035;49.978;8.298;2024-02-23T23:46:44;3.00;;;0.85;;
23712;SDS011;12035;49.978;8.298;2024-02-23T23:51:41;3.25;;;0.90;;
23712;SDS011;12035;49.978;8.298;2024-02-23T23:56:38;2.33;;;0.80;;
